Time,TemperatureF,DewpointF,PressureIn,WindDirection,WindDirectionDegrees,WindSpeedMPH,WindSpeedGustMPH,Humidity,HourlyPrecipIn,Conditions,Clouds,dailyrainin,SoftwareType,DateUTC
2013-01-15 00:00:00,38.8,38.0,30.23,SW,221,1.0,4.0,97,0.04,,---,1.49,VWS V14.01,2013-01-15 05:00:00,
2013-01-15 00:01:00,38.8,38.0,30.23,WSW,239,1.0,4.0,97,0.04,,---,1.49,VWS V14.01,2013-01-15 05:01:00,
2013-01-15 00:02:00,38.8,38.0,30.23,WSW,239,0.0,4.0,97,0.04,,---,1.49,VWS V14.01,2013-01-15 05:02:00,
2013-01-15 00:03:00,38.8,38.0,30.23,West,270,2.0,4.0,97,0.04,,---,1.49,VWS V14.01,2013-01-15 05:03:00,
2013-01-15 00:08:00,38.8,38.0,30.24,NE,42,0.0,1.0,97,0.03,,---,0.01,VWS V14.01,2013-01-15 05:08:00,
2013-01-15 00:13:00,38.8,38.0,30.23,WNW,302,2.0,2.0,97,0.03,,---,0.01,VWS V14.01,2013-01-15 05:13:00,
2013-01-15 00:18:00,38.8,38.0,30.23,West,271,0.0,3.0,97,0.03,,---,0.01,VWS V14.01,2013-01-15 05:18:00,
2013-01-15 00:23:00,38.8,38.0,30.22,South,171,0.0,4.0,97,0.04,,---,0.02,VWS V14.01,2013-01-15 05:23:00,
2013-01-15 00:28:00,38.7,37.9,30.22,SSE,165,1.0,4.0,97,0.04,,---,0.02,VWS V14.01,2013-01-15 05:28:00,
2013-01-15 00:33:00,38.7,37.9,30.21,WSW,252,2.0,4.0,97,0.04,,---,0.02,VWS V14.01,2013-01-15 05:33:00,
2013-01-15 00:38:00,38.7,37.9,30.21,West,267,0.0,2.0,97,0.02,,---,0.02,VWS V14.01,2013-01-15 05:38:00,
2013-01-15 00:43:00,38.7,37.9,30.22,SW,223,1.0,3.0,97,0.03,,---,0.03,VWS V14.01,2013-01-15 05:43:00,
2013-01-15 00:48:00,38.7,37.9,30.22,SW,216,0.0,4.0,97,0.03,,---,0.03,VWS V14.01,2013-01-15 05:48:00,
2013-01-15 00:53:00,38.7,37.9,30.22,WSW,250,1.0,4.0,97,0.03,,---,0.03,VWS V14.01,2013-01-15 05:53:00,
2013-01-15 00:58:00,38.7,37.9,30.22,West,261,1.0,4.0,97,0.03,,---,0.03,VWS V14.01,2013-01-15 05:58:00,
2013-01-15 01:03:00,38.7,37.9,30.21,WSW,257,1.0,4.0,97,0.03,,---,0.03,VWS V14.01,2013-01-15 06:03:00,
2013-01-15 01:08:00,38.8,38.0,30.21,West,259,2.0,4.0,97,0.03,,---,0.03,VWS V14.01,2013-01-15 06:08:00,
2013-01-15 01:13:00,38.8,38.0,30.21,SSW,209,1.0,4.0,97,0.04,,---,0.04,VWS V14.01,2013-01-15 06:13:00,
2013-01-15 01:18:00,38.7,37.9,30.21,SW,234,1.0,4.0,97,0.04,,---,0.04,VWS V14.01,2013-01-15 06:18:00,
2013-01-15 01:23:00,38.7,37.9,30.20,SW,230,2.0,5.0,97,0.04,,---,0.04,VWS V14.01,2013-01-15 06:23:00,
2013-01-15 01:28:00,38.7,37.9,30.20,WSW,257,1.0,6.0,97,0.04,,---,0.04,VWS V14.01,2013-01-15 06:28:00,
2013-01-15 01:33:00,38.7,37.9,30.20,WSW,253,1.0,6.0,97,0.05,,---,0.05,VWS V14.01,2013-01-15 06:33:00,
2013-01-15 01:38:00,38.8,38.0,30.21,West,271,0.0,1.0,97,0.03,,---,0.05,VWS V14.01,2013-01-15 06:38:00,
2013-01-15 01:43:00,38.8,38.0,30.21,WSW,252,2.0,3.0,97,0.03,,---,0.05,VWS V14.01,2013-01-15 06:43:00,
2013-01-15 01:48:00,38.9,38.1,30.21,SSW,211,1.0,3.0,97,0.03,,---,0.05,VWS V14.01,2013-01-15 06:48:00,
2013-01-15 01:53:00,38.9,38.1,30.20,SSW,213,0.0,4.0,97,0.04,,---,0.06,VWS V14.01,2013-01-15 06:53:00,
2013-01-15 01:58:00,39.0,38.2,30.20,SW,216,3.0,4.0,97,0.05,,---,0.07,VWS V14.01,2013-01-15 06:58:00,
2013-01-15 02:03:00,39.0,38.2,30.20,WSW,241,1.0,4.0,97,0.05,,---,0.07,VWS V14.01,2013-01-15 07:03:00,
2013-01-15 02:08:00,39.1,38.3,30.20,WSW,242,1.0,1.0,97,0.05,,---,0.08,VWS V14.01,2013-01-15 07:08:00,
2013-01-15 02:13:00,39.1,38.3,30.20,WSW,252,0.0,3.0,97,0.06,,---,0.09,VWS V14.01,2013-01-15 07:13:00,
2013-01-15 02:18:00,39.2,38.4,30.20,WSW,249,0.0,4.0,97,0.06,,---,0.09,VWS V14.01,2013-01-15 07:18:00,
2013-01-15 02:23:00,39.3,38.5,30.20,West,267,1.0,5.0,97,0.06,,---,0.09,VWS V14.01,2013-01-15 07:23:00,
2013-01-15 02:28:00,39.4,38.6,30.20,WSW,257,1.0,5.0,97,0.06,,---,0.09,VWS V14.01,2013-01-15 07:28:00,
2013-01-15 02:33:00,39.4,38.6,30.20,WSW,248,1.0,5.0,97,0.08,,---,0.11,VWS V14.01,2013-01-15 07:33:00,
2013-01-15 02:38:00,39.5,38.7,30.20,WNW,288,0.0,3.0,97,0.07,,---,0.12,VWS V14.01,2013-01-15 07:38:00,
2013-01-15 02:43:00,39.6,38.8,30.20,SE,129,1.0,5.0,97,0.09,,---,0.14,VWS V14.01,2013-01-15 07:43:00,
2013-01-15 02:48:00,39.6,38.8,30.20,WSW,244,2.0,5.0,97,0.11,,---,0.16,VWS V14.01,2013-01-15 07:48:00,
2013-01-15 02:53:00,39.7,38.9,30.21,SSW,207,2.0,5.0,97,0.12,,---,0.17,VWS V14.01,2013-01-15 07:53:00,
2013-01-15 02:58:00,39.8,39.0,30.20,West,261,1.0,5.0,97,0.14,,---,0.19,VWS V14.01,2013-01-15 07:58:00,
2013-01-15 03:03:00,39.9,39.1,30.20,WSW,237,1.0,5.0,97,0.14,,---,0.19,VWS V14.01,2013-01-15 08:03:00,
2013-01-15 03:08:00,40.0,39.2,30.20,WSW,252,1.0,3.0,97,0.12,,---,0.20,VWS V14.01,2013-01-15 08:08:00,
2013-01-15 03:13:00,40.1,39.3,30.18,WSW,258,1.0,4.0,97,0.13,,---,0.21,VWS V14.01,2013-01-15 08:13:00,
2013-01-15 03:18:00,40.2,39.4,30.18,SW,217,1.0,4.0,97,0.14,,---,0.22,VWS V14.01,2013-01-15 08:18:00,
2013-01-15 03:23:00,40.3,39.5,30.18,WSW,245,2.0,5.0,97,0.15,,---,0.23,VWS V14.01,2013-01-15 08:23:00,
2013-01-15 03:28:00,40.4,39.6,30.18,SW,236,2.0,5.0,97,0.16,,---,0.24,VWS V14.01,2013-01-15 08:28:00,
2013-01-15 03:33:00,40.4,39.6,30.18,SW,236,1.0,5.0,97,0.16,,---,0.24,VWS V14.01,2013-01-15 08:33:00,
2013-01-15 03:38:00,40.5,39.7,30.20,SW,236,0.0,1.0,97,0.13,,---,0.24,VWS V14.01,2013-01-15 08:38:00,
2013-01-15 03:43:00,40.5,39.7,30.20,South,189,0.0,2.0,97,0.13,,---,0.24,VWS V14.01,2013-01-15 08:43:00,
2013-01-15 03:48:00,40.6,39.8,30.20,WSW,249,1.0,2.0,97,0.14,,---,0.25,VWS V14.01,2013-01-15 08:48:00,
2013-01-15 03:53:00,40.6,39.8,30.21,WSW,252,0.0,2.0,97,0.16,,---,0.27,VWS V14.01,2013-01-15 08:53:00,
2013-01-15 03:58:00,40.7,39.9,30.21,WSW,242,3.0,4.0,97,0.18,,---,0.29,VWS V14.01,2013-01-15 08:58:00,
2013-01-15 04:03:00,40.8,40.0,30.20,WSW,251,0.0,4.0,97,0.21,,---,0.32,VWS V14.01,2013-01-15 09:03:00,
2013-01-15 04:08:00,40.9,40.1,30.19,SW,234,2.0,3.0,97,0.14,,---,0.34,VWS V14.01,2013-01-15 09:08:00,
2013-01-15 04:13:00,40.9,40.1,30.20,SW,219,1.0,3.0,97,0.15,,---,0.35,VWS V14.01,2013-01-15 09:13:00,
2013-01-15 04:18:00,41.0,40.2,30.20,SW,219,0.0,3.0,97,0.15,,---,0.35,VWS V14.01,2013-01-15 09:18:00,
2013-01-15 04:23:00,41.0,40.2,30.20,SW,219,0.0,3.0,97,0.16,,---,0.36,VWS V14.01,2013-01-15 09:23:00,
2013-01-15 04:28:00,41.1,40.3,30.19,WSW,237,1.0,4.0,97,0.16,,---,0.36,VWS V14.01,2013-01-15 09:28:00,
2013-01-15 04:33:00,41.1,40.3,30.19,WSW,244,1.0,6.0,97,0.18,,---,0.38,VWS V14.01,2013-01-15 09:33:00,
2013-01-15 04:38:00,41.2,40.4,30.18,WNW,289,1.0,2.0,97,0.16,,---,0.40,VWS V14.01,2013-01-15 09:38:00,
2013-01-15 04:43:00,41.3,40.5,30.17,SW,215,3.0,3.0,97,0.18,,---,0.42,VWS V14.01,2013-01-15 09:43:00,
2013-01-15 04:48:00,41.3,40.5,30.17,SW,227,0.0,6.0,97,0.18,,---,0.42,VWS V14.01,2013-01-15 09:48:00,
2013-01-15 04:53:00,41.3,40.5,30.17,WSW,239,2.0,6.0,97,0.18,,---,0.42,VWS V14.01,2013-01-15 09:53:00,
2013-01-15 04:58:00,41.4,40.6,30.18,WSW,246,1.0,6.0,97,0.18,,---,0.42,VWS V14.01,2013-01-15 09:58:00,
2013-01-15 05:03:00,41.5,40.7,30.18,West,261,0.0,6.0,97,0.18,,---,0.42,VWS V14.01,2013-01-15 10:03:00,
2013-01-15 05:08:00,41.6,40.8,30.19,West,261,1.0,2.0,97,0.10,,---,0.43,VWS V14.01,2013-01-15 10:08:00,
2013-01-15 05:13:00,41.6,40.8,30.19,SW,236,1.0,4.0,97,0.10,,---,0.43,VWS V14.01,2013-01-15 10:13:00,
2013-01-15 05:18:00,41.7,40.9,30.20,WSW,243,1.0,4.0,97,0.11,,---,0.44,VWS V14.01,2013-01-15 10:18:00,
2013-01-15 05:23:00,41.8,41.0,30.20,WSW,241,3.0,5.0,97,0.14,,---,0.47,VWS V14.01,2013-01-15 10:23:00,
2013-01-15 05:28:00,41.8,41.0,30.20,SW,233,4.0,5.0,97,0.17,,---,0.50,VWS V14.01,2013-01-15 10:28:00,
2013-01-15 05:33:00,41.9,41.1,30.20,WSW,248,0.0,5.0,97,0.19,,---,0.52,VWS V14.01,2013-01-15 10:33:00,
2013-01-15 05:38:00,41.9,41.1,30.22,West,260,1.0,1.0,97,0.14,,---,0.53,VWS V14.01,2013-01-15 10:38:00,
2013-01-15 05:43:00,41.9,41.1,30.20,WSW,251,1.0,2.0,97,0.15,,---,0.54,VWS V14.01,2013-01-15 10:43:00,
2013-01-15 05:48:00,42.0,41.2,30.21,WNW,284,0.0,3.0,97,0.17,,---,0.56,VWS V14.01,2013-01-15 10:48:00,
2013-01-15 05:52:00,42.0,41.2,30.21,West,271,1.0,3.0,97,0.17,,---,0.56,VWS V14.01,2013-01-15 10:52:00,
2013-01-15 05:57:00,42.1,41.3,30.21,WSW,249,2.0,3.0,97,0.18,,---,0.57,VWS V14.01,2013-01-15 10:57:00,
2013-01-15 06:02:00,42.2,41.4,30.19,SW,230,1.0,4.0,97,0.19,,---,0.58,VWS V14.01,2013-01-15 11:02:00,
2013-01-15 06:07:00,42.2,41.4,30.20,WSW,250,0.0,4.0,97,0.16,,---,0.59,VWS V14.01,2013-01-15 11:07:00,
2013-01-15 06:12:00,42.2,41.4,30.20,WNW,288,1.0,4.0,97,0.16,,---,0.59,VWS V14.01,2013-01-15 11:12:00,
2013-01-15 06:17:00,42.2,41.4,30.19,WSW,249,4.0,6.0,97,0.17,,---,0.60,VWS V14.01,2013-01-15 11:17:00,
2013-01-15 06:22:00,42.2,41.4,30.20,SW,219,0.0,6.0,97,0.18,,---,0.61,VWS V14.01,2013-01-15 11:22:00,
2013-01-15 06:27:00,42.2,41.4,30.19,SW,219,0.0,6.0,97,0.18,,---,0.61,VWS V14.01,2013-01-15 11:27:00,
2013-01-15 06:32:00,42.2,41.4,30.21,SW,219,1.0,6.0,97,0.18,,---,0.61,VWS V14.01,2013-01-15 11:32:00,
2013-01-15 06:37:00,42.2,41.4,30.21,SW,219,0.0,1.0,97,0.08,,---,0.61,VWS V14.01,2013-01-15 11:37:00,
2013-01-15 06:42:00,42.1,41.3,30.23,SW,219,0.0,1.0,97,0.09,,---,0.62,VWS V14.01,2013-01-15 11:42:00,
2013-01-15 06:47:00,42.0,41.2,30.22,WSW,241,1.0,2.0,97,0.09,,---,0.62,VWS V14.01,2013-01-15 11:47:00,
2013-01-15 06:52:00,41.8,41.0,30.22,SSW,200,1.0,3.0,97,0.10,,---,0.63,VWS V14.01,2013-01-15 11:52:00,
2013-01-15 06:57:00,41.6,40.8,30.22,SW,220,2.0,4.0,97,0.10,,---,0.63,VWS V14.01,2013-01-15 11:57:00,
2013-01-15 07:02:00,41.5,40.7,30.21,SW,224,0.0,4.0,97,0.10,,---,0.63,VWS V14.01,2013-01-15 12:02:00,
2013-01-15 07:07:00,41.5,40.7,30.22,WSW,242,1.0,2.0,97,0.05,,---,0.63,VWS V14.01,2013-01-15 12:07:00,
2013-01-15 07:12:00,41.4,40.6,30.22,South,182,1.0,2.0,97,0.05,,---,0.63,VWS V14.01,2013-01-15 12:12:00,
2013-01-15 07:17:00,41.4,40.6,30.22,South,182,0.0,2.0,97,0.05,,---,0.63,VWS V14.01,2013-01-15 12:17:00,
2013-01-15 07:22:00,41.4,40.6,30.22,WSW,254,0.0,3.0,97,0.05,,---,0.63,VWS V14.01,2013-01-15 12:22:00,
2013-01-15 07:27:00,41.4,40.6,30.23,WSW,256,0.0,3.0,97,0.05,,---,0.63,VWS V14.01,2013-01-15 12:27:00,
2013-01-15 07:32:00,41.4,40.6,30.22,SW,227,1.0,4.0,97,0.05,,---,0.63,VWS V14.01,2013-01-15 12:32:00,
2013-01-15 07:37:00,41.3,40.5,30.23,SSW,213,0.0,2.0,97,0.02,,---,0.63,VWS V14.01,2013-01-15 12:37:00,
2013-01-15 07:42:00,41.2,40.4,30.24,SSW,211,1.0,2.0,97,0.02,,---,0.63,VWS V14.01,2013-01-15 12:42:00,
2013-01-15 07:47:00,41.2,40.4,30.24,WNW,290,1.0,2.0,97,0.03,,---,0.64,VWS V14.01,2013-01-15 12:47:00,
2013-01-15 07:52:00,41.1,40.3,30.24,WSW,246,0.0,3.0,97,0.03,,---,0.64,VWS V14.01,2013-01-15 12:52:00,
2013-01-15 07:57:00,41.1,40.3,30.25,SE,141,0.0,3.0,97,0.03,,---,0.64,VWS V14.01,2013-01-15 12:57:00,
2013-01-15 08:02:00,41.0,40.2,30.25,WSW,240,1.0,4.0,97,0.03,,---,0.64,VWS V14.01,2013-01-15 13:02:00,
2013-01-15 08:07:00,41.0,40.2,30.24,SW,232,1.0,2.0,97,0.01,,---,0.64,VWS V14.01,2013-01-15 13:07:00,
2013-01-15 08:12:00,40.9,40.1,30.24,SW,236,1.0,2.0,97,0.01,,---,0.64,VWS V14.01,2013-01-15 13:12:00,
2013-01-15 08:17:00,40.8,40.0,30.25,WSW,257,1.0,3.0,97,0.01,,---,0.64,VWS V14.01,2013-01-15 13:17:00,
2013-01-15 08:22:00,40.7,39.9,30.25,SW,225,3.0,4.0,97,0.01,,---,0.64,VWS V14.01,2013-01-15 13:22:00,
2013-01-15 08:27:00,40.6,39.8,30.25,WSW,238,1.0,5.0,97,0.01,,---,0.64,VWS V14.01,2013-01-15 13:27:00,
2013-01-15 08:32:00,40.5,39.7,30.25,WSW,239,2.0,5.0,97,0.01,,---,0.64,VWS V14.01,2013-01-15 13:32:00,
2013-01-15 08:37:00,40.5,39.7,30.25,WSW,252,1.0,2.0,97,0.01,,---,0.64,VWS V14.01,2013-01-15 13:37:00,
2013-01-15 08:42:00,40.5,39.7,30.25,WSW,242,4.0,5.0,97,0.01,,---,0.64,VWS V14.01,2013-01-15 13:42:00,
2013-01-15 08:47:00,40.5,39.7,30.24,SW,227,1.0,5.0,97,0.01,,---,0.64,VWS V14.01,2013-01-15 13:47:00,
2013-01-15 08:52:00,40.5,39.7,30.24,WSW,242,2.0,5.0,97,0.01,,---,0.64,VWS V14.01,2013-01-15 13:52:00,
2013-01-15 08:57:00,40.5,39.7,30.25,West,261,3.0,5.0,97,0.01,,---,0.64,VWS V14.01,2013-01-15 13:57:00,
2013-01-15 09:02:00,40.5,39.7,30.25,WSW,240,1.0,5.0,97,0.01,,---,0.64,VWS V14.01,2013-01-15 14:02:00,
2013-01-15 09:07:00,40.5,39.7,30.24,WSW,252,1.0,5.0,97,0.00,,---,0.64,VWS V14.01,2013-01-15 14:07:00,
2013-01-15 09:12:00,40.6,39.8,30.25,WSW,238,1.0,5.0,97,0.00,,---,0.64,VWS V14.01,2013-01-15 14:12:00,
2013-01-15 09:17:00,40.6,39.8,30.25,WSW,253,0.0,5.0,97,0.00,,---,0.64,VWS V14.01,2013-01-15 14:17:00,
2013-01-15 09:22:00,40.6,39.8,30.25,SW,228,2.0,5.0,97,0.00,,---,0.64,VWS V14.01,2013-01-15 14:22:00,
2013-01-15 09:27:00,40.6,39.8,30.25,WSW,251,2.0,5.0,97,0.00,,---,0.64,VWS V14.01,2013-01-15 14:27:00,
2013-01-15 09:32:00,40.7,39.9,30.25,South,171,1.0,5.0,97,0.00,,---,0.64,VWS V14.01,2013-01-15 14:32:00,
2013-01-15 09:37:00,40.7,39.9,30.25,SSE,158,6.0,6.0,97,0.00,,---,0.64,VWS V14.01,2013-01-15 14:37:00,
2013-01-15 09:42:00,40.7,39.9,30.24,SW,235,1.0,6.0,97,0.00,,---,0.64,VWS V14.01,2013-01-15 14:42:00,
2013-01-15 09:47:00,40.7,39.9,30.23,SW,223,3.0,6.0,97,0.00,,---,0.64,VWS V14.01,2013-01-15 14:47:00,
2013-01-15 09:52:00,40.9,40.1,30.23,SSW,203,2.0,6.0,97,0.00,,---,0.64,VWS V14.01,2013-01-15 14:52:00,
2013-01-15 09:57:00,40.9,40.1,30.23,SW,227,2.0,6.0,97,0.00,,---,0.64,VWS V14.01,2013-01-15 14:57:00,
2013-01-15 10:02:00,41.0,40.2,30.24,West,269,2.0,6.0,97,0.00,,---,0.64,VWS V14.01,2013-01-15 15:02:00,
2013-01-15 10:07:00,41.1,40.3,30.23,SSW,206,3.0,5.0,97,0.00,,---,0.64,VWS V14.01,2013-01-15 15:07:00,
2013-01-15 10:12:00,41.1,40.3,30.23,WSW,240,1.0,10.0,97,0.00,,---,0.64,VWS V14.01,2013-01-15 15:12:00,
2013-01-15 10:17:00,41.1,40.3,30.24,WSW,240,2.0,10.0,97,0.01,,---,0.65,VWS V14.01,2013-01-15 15:17:00,
2013-01-15 10:22:00,41.1,40.3,30.23,WSW,253,2.0,10.0,97,0.01,,---,0.65,VWS V14.01,2013-01-15 15:22:00,
2013-01-15 10:27:00,41.1,40.3,30.23,WSW,252,1.0,10.0,97,0.01,,---,0.65,VWS V14.01,2013-01-15 15:27:00,
2013-01-15 10:32:00,41.2,40.4,30.23,West,259,2.0,10.0,97,0.01,,---,0.65,VWS V14.01,2013-01-15 15:32:00,
2013-01-15 10:37:00,41.2,40.4,30.24,West,275,0.0,3.0,97,0.01,,---,0.65,VWS V14.01,2013-01-15 15:37:00,
2013-01-15 10:42:00,41.2,40.4,30.23,SW,234,0.0,3.0,97,0.01,,---,0.65,VWS V14.01,2013-01-15 15:42:00,
2013-01-15 10:47:00,41.2,40.4,30.23,West,280,5.0,5.0,97,0.01,,---,0.65,VWS V14.01,2013-01-15 15:47:00,
2013-01-15 10:52:00,41.2,40.4,30.22,SW,223,0.0,5.0,97,0.01,,---,0.65,VWS V14.01,2013-01-15 15:52:00,
2013-01-15 10:57:00,41.2,40.4,30.22,SSW,210,3.0,6.0,97,0.01,,---,0.65,VWS V14.01,2013-01-15 15:57:00,
2013-01-15 11:02:00,41.2,40.4,30.22,WSW,246,2.0,6.0,97,0.01,,---,0.65,VWS V14.01,2013-01-15 16:02:00,
2013-01-15 11:07:00,41.2,40.4,30.22,West,262,1.0,3.0,97,0.01,,---,0.65,VWS V14.01,2013-01-15 16:07:00,
2013-01-15 11:12:00,41.2,40.4,30.21,SW,215,1.0,9.0,97,0.01,,---,0.65,VWS V14.01,2013-01-15 16:12:00,
2013-01-15 11:17:00,41.1,40.3,30.21,SW,229,0.0,9.0,97,0.01,,---,0.65,VWS V14.01,2013-01-15 16:17:00,
2013-01-15 11:22:00,41.0,40.2,30.21,SW,236,2.0,9.0,97,0.01,,---,0.65,VWS V14.01,2013-01-15 16:22:00,
2013-01-15 11:27:00,41.0,40.2,30.20,West,275,2.0,9.0,97,0.01,,---,0.65,VWS V14.01,2013-01-15 16:27:00,
2013-01-15 11:32:00,40.9,40.1,30.20,SW,232,2.0,9.0,97,0.01,,---,0.65,VWS V14.01,2013-01-15 16:32:00,
2013-01-15 11:37:00,40.8,40.0,30.19,WSW,246,3.0,7.0,97,0.00,,---,0.65,VWS V14.01,2013-01-15 16:37:00,
2013-01-15 11:42:00,40.8,40.0,30.18,WSW,240,1.0,11.0,97,0.00,,---,0.65,VWS V14.01,2013-01-15 16:42:00,
2013-01-15 11:47:00,40.8,40.0,30.18,WSW,247,1.0,11.0,97,0.00,,---,0.65,VWS V14.01,2013-01-15 16:47:00,
2013-01-15 11:52:00,40.9,40.1,30.17,SW,228,3.0,11.0,97,0.01,,---,0.66,VWS V14.01,2013-01-15 16:52:00,
2013-01-15 11:57:00,40.9,40.1,30.18,WSW,249,3.0,11.0,97,0.01,,---,0.66,VWS V14.01,2013-01-15 16:57:00,
2013-01-15 12:02:00,40.9,40.1,30.17,SW,214,1.0,11.0,97,0.01,,---,0.66,VWS V14.01,2013-01-15 17:02:00,
2013-01-15 12:07:00,40.9,40.1,30.17,WSW,244,0.0,3.0,97,0.01,,---,0.66,VWS V14.01,2013-01-15 17:07:00,
2013-01-15 12:12:00,41.0,40.2,30.17,SW,219,1.0,3.0,97,0.01,,---,0.66,VWS V14.01,2013-01-15 17:12:00,
2013-01-15 12:17:00,41.0,40.2,30.18,SW,217,1.0,3.0,97,0.02,,---,0.67,VWS V14.01,2013-01-15 17:17:00,
2013-01-15 12:22:00,41.0,40.2,30.17,West,259,2.0,4.0,97,0.03,,---,0.68,VWS V14.01,2013-01-15 17:22:00,
2013-01-15 12:27:00,41.1,40.3,30.16,SW,229,0.0,5.0,97,0.04,,---,0.69,VWS V14.01,2013-01-15 17:27:00,
2013-01-15 12:32:00,41.1,40.3,30.16,SE,138,0.0,5.0,97,0.04,,---,0.69,VWS V14.01,2013-01-15 17:32:00,
2013-01-15 12:37:00,41.1,40.3,30.16,North,355,1.0,3.0,97,0.05,,---,0.70,VWS V14.01,2013-01-15 17:37:00,
2013-01-15 12:42:00,41.1,40.3,30.15,WSW,237,2.0,3.0,97,0.06,,---,0.71,VWS V14.01,2013-01-15 17:42:00,
2013-01-15 12:47:00,41.1,40.3,30.15,WSW,244,3.0,5.0,97,0.08,,---,0.73,VWS V14.01,2013-01-15 17:47:00,
2013-01-15 12:52:00,41.1,40.3,30.15,SSW,213,2.0,5.0,97,0.09,,---,0.74,VWS V14.01,2013-01-15 17:52:00,
2013-01-15 12:57:00,41.1,40.3,30.15,WSW,250,1.0,5.0,97,0.11,,---,0.76,VWS V14.01,2013-01-15 17:57:00,
2013-01-15 13:02:00,41.1,40.3,30.15,SSW,208,1.0,5.0,97,0.13,,---,0.78,VWS V14.01,2013-01-15 18:02:00,
2013-01-15 13:07:00,41.1,40.3,30.14,West,264,1.0,3.0,97,0.13,,---,0.79,VWS V14.01,2013-01-15 18:07:00,
2013-01-15 13:12:00,41.3,40.5,30.13,SW,215,1.0,3.0,97,0.14,,---,0.80,VWS V14.01,2013-01-15 18:12:00,
2013-01-15 13:17:00,41.4,40.6,30.12,South,171,4.0,5.0,97,0.15,,---,0.81,VWS V14.01,2013-01-15 18:17:00,
2013-01-15 13:22:00,41.3,40.5,30.12,WSW,240,7.0,8.0,97,0.16,,---,0.82,VWS V14.01,2013-01-15 18:22:00,
2013-01-15 13:27:00,41.3,40.5,30.12,SSW,203,0.0,8.0,97,0.16,,---,0.82,VWS V14.01,2013-01-15 18:27:00,
2013-01-15 13:32:00,41.4,40.6,30.11,SSW,213,2.0,8.0,97,0.16,,---,0.82,VWS V14.01,2013-01-15 18:32:00,
2013-01-15 13:37:00,41.3,40.5,30.12,WSW,248,4.0,5.0,97,0.13,,---,0.82,VWS V14.01,2013-01-15 18:37:00,
2013-01-15 13:42:00,41.3,40.5,30.10,WSW,246,2.0,6.0,97,0.13,,---,0.82,VWS V14.01,2013-01-15 18:42:00,
2013-01-15 13:47:00,41.3,40.5,30.10,WSW,237,2.0,6.0,97,0.14,,---,0.83,VWS V14.01,2013-01-15 18:47:00,
2013-01-15 13:52:00,41.4,40.6,30.11,West,275,3.0,6.0,97,0.15,,---,0.84,VWS V14.01,2013-01-15 18:52:00,
2013-01-15 13:57:00,41.4,40.6,30.11,WSW,242,1.0,7.0,97,0.15,,---,0.84,VWS V14.01,2013-01-15 18:57:00,
2013-01-15 14:02:00,41.4,40.6,30.11,WSW,252,2.0,7.0,97,0.15,,---,0.84,VWS V14.01,2013-01-15 19:02:00,
2013-01-15 14:07:00,41.5,40.7,30.10,SSW,213,0.0,3.0,97,0.07,,---,0.85,VWS V14.01,2013-01-15 19:07:00,
2013-01-15 14:12:00,41.5,40.7,30.09,SW,226,2.0,5.0,97,0.07,,---,0.85,VWS V14.01,2013-01-15 19:12:00,
2013-01-15 14:17:00,41.6,40.8,30.10,WSW,254,3.0,5.0,97,0.07,,---,0.85,VWS V14.01,2013-01-15 19:17:00,
2013-01-15 14:22:00,41.7,40.9,30.09,WSW,246,4.0,5.0,97,0.07,,---,0.85,VWS V14.01,2013-01-15 19:22:00,
2013-01-15 14:27:00,41.7,40.9,30.09,SW,236,1.0,6.0,97,0.08,,---,0.86,VWS V14.01,2013-01-15 19:27:00,
2013-01-15 14:32:00,41.8,41.0,30.09,West,263,1.0,6.0,97,0.08,,---,0.86,VWS V14.01,2013-01-15 19:32:00,
2013-01-15 14:37:00,41.8,41.0,30.10,West,263,1.0,3.0,97,0.04,,---,0.86,VWS V14.01,2013-01-15 19:37:00,
2013-01-15 14:42:00,41.8,41.0,30.10,West,271,0.0,3.0,97,0.05,,---,0.87,VWS V14.01,2013-01-15 19:42:00,
2013-01-15 14:47:00,41.8,41.0,30.10,West,268,2.0,3.0,97,0.08,,---,0.90,VWS V14.01,2013-01-15 19:47:00,
2013-01-15 14:52:00,41.8,41.0,30.12,NW,313,0.0,3.0,97,0.09,,---,0.91,VWS V14.01,2013-01-15 19:52:00,
2013-01-15 14:57:00,41.8,41.0,30.10,WSW,243,1.0,4.0,97,0.12,,---,0.94,VWS V14.01,2013-01-15 19:57:00,
2013-01-15 15:02:00,41.7,40.9,30.11,WSW,240,1.0,4.0,97,0.15,,---,0.97,VWS V14.01,2013-01-15 20:02:00,
2013-01-15 15:07:00,41.7,40.9,30.11,WSW,246,2.0,3.0,97,0.16,,---,1.00,VWS V14.01,2013-01-15 20:07:00,
2013-01-15 15:12:00,41.7,40.9,30.11,WSW,244,1.0,3.0,97,0.18,,---,1.02,VWS V14.01,2013-01-15 20:12:00,
2013-01-15 15:17:00,41.7,40.9,30.10,SW,233,1.0,4.0,97,0.20,,---,1.04,VWS V14.01,2013-01-15 20:17:00,
2013-01-15 15:22:00,41.7,40.9,30.10,West,281,1.0,4.0,97,0.22,,---,1.06,VWS V14.01,2013-01-15 20:22:00,
2013-01-15 15:27:00,41.8,41.0,30.11,SSE,166,0.0,4.0,97,0.24,,---,1.08,VWS V14.01,2013-01-15 20:27:00,
2013-01-15 15:32:00,41.7,40.9,30.11,SW,232,2.0,4.0,97,0.26,,---,1.10,VWS V14.01,2013-01-15 20:32:00,
2013-01-15 15:37:00,41.8,41.0,30.10,SW,233,1.0,3.0,97,0.26,,---,1.12,VWS V14.01,2013-01-15 20:37:00,
2013-01-15 15:42:00,41.9,41.1,30.11,SW,233,2.0,3.0,97,0.28,,---,1.14,VWS V14.01,2013-01-15 20:42:00,
2013-01-15 15:47:00,41.9,41.1,30.11,WSW,250,2.0,4.0,97,0.30,,---,1.16,VWS V14.01,2013-01-15 20:47:00,
2013-01-15 15:52:00,41.9,41.1,30.12,WSW,250,0.0,4.0,97,0.32,,---,1.18,VWS V14.01,2013-01-15 20:52:00,
2013-01-15 15:57:00,42.0,41.2,30.11,SW,227,3.0,4.0,97,0.33,,---,1.19,VWS V14.01,2013-01-15 20:57:00,
2013-01-15 16:02:00,42.0,41.2,30.10,WSW,238,1.0,4.0,97,0.34,,---,1.20,VWS V14.01,2013-01-15 21:02:00,
2013-01-15 16:07:00,42.0,41.2,30.09,WSW,241,1.0,3.0,97,0.21,,---,1.20,VWS V14.01,2013-01-15 21:07:00,
2013-01-15 16:12:00,42.1,41.3,30.10,SW,229,2.0,3.0,97,0.22,,---,1.21,VWS V14.01,2013-01-15 21:12:00,
2013-01-15 16:17:00,42.1,41.3,30.10,WSW,256,1.0,3.0,97,0.22,,---,1.21,VWS V14.01,2013-01-15 21:17:00,
2013-01-15 16:22:00,42.1,41.3,30.10,SW,215,1.0,4.0,97,0.23,,---,1.22,VWS V14.01,2013-01-15 21:22:00,
2013-01-15 16:27:00,42.2,41.4,30.10,SW,219,1.0,4.0,97,0.23,,---,1.22,VWS V14.01,2013-01-15 21:27:00,
2013-01-15 16:32:00,42.2,41.4,30.10,West,265,1.0,4.0,97,0.24,,---,1.23,VWS V14.01,2013-01-15 21:32:00,
2013-01-15 16:37:00,42.2,41.4,30.10,WNW,286,2.0,2.0,97,0.14,,---,1.25,VWS V14.01,2013-01-15 21:37:00,
2013-01-15 16:42:00,42.2,41.4,30.09,WSW,246,1.0,4.0,97,0.15,,---,1.26,VWS V14.01,2013-01-15 21:42:00,
2013-01-15 16:47:00,42.2,41.4,30.10,West,259,1.0,4.0,97,0.16,,---,1.27,VWS V14.01,2013-01-15 21:47:00,
2013-01-15 16:52:00,42.2,41.4,30.10,SW,214,0.0,4.0,97,0.16,,---,1.27,VWS V14.01,2013-01-15 21:52:00,
2013-01-15 16:57:00,42.2,41.4,30.10,WNW,288,1.0,4.0,97,0.17,,---,1.28,VWS V14.01,2013-01-15 21:57:00,
2013-01-15 17:02:00,42.2,41.4,30.10,West,264,0.0,4.0,97,0.17,,---,1.28,VWS V14.01,2013-01-15 22:02:00,
2013-01-15 17:07:00,42.2,41.4,30.10,West,265,0.0,1.0,97,0.09,,---,1.29,VWS V14.01,2013-01-15 22:07:00,
2013-01-15 17:12:00,42.2,41.4,30.10,West,264,0.0,1.0,97,0.10,,---,1.30,VWS V14.01,2013-01-15 22:12:00,
2013-01-15 17:17:00,42.2,41.4,30.10,WSW,244,0.0,4.0,97,0.11,,---,1.31,VWS V14.01,2013-01-15 22:17:00,
2013-01-15 17:22:00,42.1,41.3,30.10,WSW,244,0.0,4.0,97,0.13,,---,1.33,VWS V14.01,2013-01-15 22:22:00,
2013-01-15 17:27:00,42.0,41.2,30.10,WSW,248,2.0,4.0,97,0.15,,---,1.35,VWS V14.01,2013-01-15 22:27:00,
2013-01-15 17:32:00,42.0,41.2,30.10,WSW,248,0.0,4.0,97,0.16,,---,1.36,VWS V14.01,2013-01-15 22:32:00,
2013-01-15 17:37:00,42.0,41.2,30.11,WSW,248,0.0,1.0,97,0.12,,---,1.36,VWS V14.01,2013-01-15 22:37:00,
2013-01-15 17:42:00,42.0,41.2,30.10,WSW,248,0.0,2.0,97,0.12,,---,1.36,VWS V14.01,2013-01-15 22:42:00,
2013-01-15 17:47:00,42.0,41.2,30.09,WSW,248,1.0,2.0,97,0.13,,---,1.37,VWS V14.01,2013-01-15 22:47:00,
2013-01-15 17:52:00,42.1,41.3,30.09,WSW,248,1.0,2.0,97,0.14,,---,1.38,VWS V14.01,2013-01-15 22:52:00,
2013-01-15 17:57:00,42.1,41.3,30.09,WSW,246,0.0,2.0,97,0.15,,---,1.39,VWS V14.01,2013-01-15 22:57:00,
2013-01-15 18:02:00,42.1,41.3,30.09,WSW,246,2.0,2.0,97,0.16,,---,1.40,VWS V14.01,2013-01-15 23:02:00,
2013-01-15 18:07:00,42.0,41.2,30.09,WSW,244,1.0,3.0,97,0.12,,---,1.41,VWS V14.01,2013-01-15 23:07:00,
2013-01-15 18:12:00,42.0,41.2,30.09,WSW,244,1.0,3.0,97,0.12,,---,1.41,VWS V14.01,2013-01-15 23:12:00,
2013-01-15 18:17:00,42.0,41.2,30.09,WSW,248,0.0,3.0,97,0.13,,---,1.42,VWS V14.01,2013-01-15 23:17:00,
2013-01-15 18:22:00,42.0,41.2,30.10,WSW,248,0.0,3.0,97,0.13,,---,1.42,VWS V14.01,2013-01-15 23:22:00,
2013-01-15 18:27:00,42.1,41.3,30.11,WSW,248,0.0,3.0,97,0.13,,---,1.42,VWS V14.01,2013-01-15 23:27:00,
2013-01-15 18:32:00,42.1,41.3,30.11,NNW,330,0.0,3.0,97,0.13,,---,1.42,VWS V14.01,2013-01-15 23:32:00,
2013-01-15 18:37:00,42.2,41.4,30.10,NNW,329,0.0,1.0,97,0.07,,---,1.43,VWS V14.01,2013-01-15 23:37:00,
2013-01-15 18:42:00,42.2,41.4,30.11,East,96,2.0,3.0,97,0.07,,---,1.43,VWS V14.01,2013-01-15 23:42:00,
2013-01-15 18:47:00,42.2,41.4,30.11,East,93,0.0,3.0,97,0.07,,---,1.43,VWS V14.01,2013-01-15 23:47:00,
2013-01-15 18:52:00,42.2,41.4,30.11,East,92,1.0,3.0,97,0.07,,---,1.43,VWS V14.01,2013-01-15 23:52:00,
2013-01-15 18:57:00,42.3,41.5,30.10,SSW,194,0.0,3.0,97,0.08,,---,1.44,VWS V14.01,2013-01-15 23:57:00,
2013-01-15 19:02:00,42.3,41.5,30.10,SSW,200,0.0,3.0,97,0.08,,---,1.44,VWS V14.01,2013-01-16 00:02:00,
2013-01-15 19:07:00,42.4,41.6,30.10,WSW,243,0.0,1.0,97,0.05,,---,1.45,VWS V14.01,2013-01-16 00:07:00,
2013-01-15 19:12:00,42.4,41.6,30.10,WSW,242,0.0,1.0,97,0.05,,---,1.45,VWS V14.01,2013-01-16 00:12:00,
2013-01-15 19:17:00,42.5,41.7,30.10,WSW,242,0.0,1.0,97,0.06,,---,1.46,VWS V14.01,2013-01-16 00:17:00,
2013-01-15 19:22:00,42.5,41.7,30.10,WSW,242,0.0,1.0,97,0.06,,---,1.46,VWS V14.01,2013-01-16 00:22:00,
2013-01-15 19:27:00,42.5,41.7,30.10,WSW,243,0.0,1.0,97,0.07,,---,1.47,VWS V14.01,2013-01-16 00:27:00,
2013-01-15 19:32:00,42.6,42.1,30.10,WSW,244,0.0,2.0,98,0.07,,---,1.47,VWS V14.01,2013-01-16 00:32:00,
2013-01-15 19:37:00,42.7,42.2,30.10,WSW,244,0.0,1.0,98,0.04,,---,1.47,VWS V14.01,2013-01-16 00:37:00,
2013-01-15 19:42:00,42.7,42.2,30.10,WSW,244,0.0,1.0,98,0.04,,---,1.47,VWS V14.01,2013-01-16 00:42:00,
2013-01-15 19:47:00,42.7,42.2,30.09,WSW,244,0.0,1.0,98,0.05,,---,1.48,VWS V14.01,2013-01-16 00:47:00,
2013-01-15 19:52:00,42.7,42.2,30.09,WSW,244,0.0,1.0,98,0.05,,---,1.48,VWS V14.01,2013-01-16 00:52:00,
2013-01-15 19:57:00,42.8,42.3,30.09,WSW,244,1.0,1.0,98,0.06,,---,1.49,VWS V14.01,2013-01-16 00:57:00,
2013-01-15 20:02:00,42.8,42.3,30.09,WSW,244,0.0,1.0,98,0.06,,---,1.49,VWS V14.01,2013-01-16 01:02:00,
2013-01-15 20:07:00,42.8,42.3,30.09,WSW,244,0.0,1.0,98,0.05,,---,1.50,VWS V14.01,2013-01-16 01:07:00,
2013-01-15 20:12:00,42.8,42.3,30.08,WSW,244,0.0,2.0,98,0.05,,---,1.50,VWS V14.01,2013-01-16 01:12:00,
2013-01-15 20:17:00,42.8,42.3,30.08,SW,236,1.0,2.0,98,0.05,,---,1.50,VWS V14.01,2013-01-16 01:17:00,
2013-01-15 20:22:00,42.9,42.1,30.08,West,259,1.0,4.0,97,0.06,,---,1.51,VWS V14.01,2013-01-16 01:22:00,
2013-01-15 20:27:00,42.9,42.4,30.08,WSW,256,0.0,4.0,98,0.06,,---,1.51,VWS V14.01,2013-01-16 01:27:00,
2013-01-15 20:32:00,42.9,42.1,30.08,WSW,256,1.0,4.0,97,0.06,,---,1.51,VWS V14.01,2013-01-16 01:32:00,
2013-01-15 20:37:00,42.9,42.1,30.08,WSW,255,0.0,2.0,97,0.04,,---,1.51,VWS V14.01,2013-01-16 01:37:00,
2013-01-15 20:42:00,42.9,42.1,30.08,WSW,255,0.0,2.0,97,0.04,,---,1.51,VWS V14.01,2013-01-16 01:42:00,
2013-01-15 20:47:00,42.9,42.1,30.08,WSW,255,0.0,2.0,97,0.04,,---,1.51,VWS V14.01,2013-01-16 01:47:00,
2013-01-15 20:52:00,42.9,42.1,30.09,WSW,255,0.0,2.0,97,0.04,,---,1.51,VWS V14.01,2013-01-16 01:52:00,
2013-01-15 20:57:00,43.0,42.2,30.09,WSW,255,0.0,2.0,97,0.04,,---,1.51,VWS V14.01,2013-01-16 01:57:00,
2013-01-15 21:02:00,43.0,42.2,30.08,WSW,255,0.0,2.0,97,0.04,,---,1.51,VWS V14.01,2013-01-16 02:02:00,
2013-01-15 21:07:00,43.0,42.2,30.08,WSW,255,0.0,0.0,97,0.01,,---,1.51,VWS V14.01,2013-01-16 02:07:00,
2013-01-15 21:12:00,43.0,42.2,30.08,WSW,254,0.0,0.0,97,0.02,,---,1.52,VWS V14.01,2013-01-16 02:12:00,
2013-01-15 21:17:00,43.0,42.2,30.08,WSW,254,0.0,1.0,97,0.02,,---,1.52,VWS V14.01,2013-01-16 02:17:00,
2013-01-15 21:22:00,43.1,42.3,30.08,WSW,255,0.0,1.0,97,0.02,,---,1.52,VWS V14.01,2013-01-16 02:22:00,
2013-01-15 21:27:00,43.1,42.3,30.08,WSW,255,0.0,1.0,97,0.02,,---,1.52,VWS V14.01,2013-01-16 02:27:00,
2013-01-15 21:32:00,43.1,42.3,30.09,WSW,254,0.0,1.0,97,0.02,,---,1.52,VWS V14.01,2013-01-16 02:32:00,
2013-01-15 21:37:00,43.2,42.4,30.09,WSW,255,1.0,2.0,97,0.01,,---,1.52,VWS V14.01,2013-01-16 02:37:00,
2013-01-15 21:42:00,43.2,42.7,30.09,WSW,255,0.0,2.0,98,0.02,,---,1.53,VWS V14.01,2013-01-16 02:42:00,
2013-01-15 21:47:00,43.2,42.7,30.09,WSW,254,0.0,2.0,98,0.02,,---,1.53,VWS V14.01,2013-01-16 02:47:00,
2013-01-15 21:52:00,43.2,42.7,30.08,WSW,255,1.0,2.0,98,0.03,,---,1.54,VWS V14.01,2013-01-16 02:52:00,
2013-01-15 21:57:00,43.3,42.8,30.08,WSW,255,0.0,2.0,98,0.03,,---,1.54,VWS V14.01,2013-01-16 02:57:00,
2013-01-15 22:02:00,43.3,42.8,30.08,WSW,255,0.0,2.0,98,0.04,,---,1.55,VWS V14.01,2013-01-16 03:02:00,
2013-01-15 22:07:00,43.3,42.8,30.07,SW,236,2.0,2.0,98,0.05,,---,1.56,VWS V14.01,2013-01-16 03:07:00,
2013-01-15 22:12:00,43.3,42.8,30.07,SW,236,1.0,2.0,98,0.05,,---,1.56,VWS V14.01,2013-01-16 03:12:00,
2013-01-15 22:17:00,43.3,42.8,30.07,WSW,242,0.0,2.0,98,0.06,,---,1.57,VWS V14.01,2013-01-16 03:17:00,
2013-01-15 22:22:00,43.4,42.9,30.07,WSW,257,1.0,2.0,98,0.06,,---,1.57,VWS V14.01,2013-01-16 03:22:00,
2013-01-15 22:27:00,43.4,42.9,30.07,WSW,255,1.0,2.0,98,0.06,,---,1.57,VWS V14.01,2013-01-16 03:27:00,
2013-01-15 22:32:00,43.4,42.9,30.07,WSW,255,1.0,3.0,98,0.07,,---,1.58,VWS V14.01,2013-01-16 03:32:00,
2013-01-15 22:37:00,43.4,42.9,30.07,SW,236,1.0,3.0,98,0.06,,---,1.58,VWS V14.01,2013-01-16 03:37:00,
2013-01-15 22:42:00,43.4,42.9,30.07,SW,236,0.0,3.0,98,0.06,,---,1.58,VWS V14.01,2013-01-16 03:42:00,
2013-01-15 22:47:00,43.4,42.9,30.07,SW,236,0.0,3.0,98,0.07,,---,1.59,VWS V14.01,2013-01-16 03:47:00,
2013-01-15 22:52:00,43.5,43.0,30.07,SW,236,2.0,3.0,98,0.07,,---,1.59,VWS V14.01,2013-01-16 03:52:00,
2013-01-15 22:57:00,43.4,42.9,30.07,SW,234,0.0,3.0,98,0.09,,---,1.61,VWS V14.01,2013-01-16 03:57:00,
2013-01-15 23:02:00,43.4,42.9,30.06,WSW,238,1.0,3.0,98,0.10,,---,1.62,VWS V14.01,2013-01-16 04:02:00,
2013-01-15 23:07:00,43.4,42.9,30.06,WSW,242,1.0,3.0,98,0.08,,---,1.64,VWS V14.01,2013-01-16 04:07:00,
2013-01-15 23:12:00,43.4,42.9,30.07,SSW,205,1.0,3.0,98,0.09,,---,1.65,VWS V14.01,2013-01-16 04:12:00,
2013-01-15 23:17:00,43.4,42.9,30.06,SW,214,0.0,3.0,98,0.10,,---,1.66,VWS V14.01,2013-01-16 04:17:00,
2013-01-15 23:22:00,43.4,42.9,30.05,SW,217,0.0,3.0,98,0.11,,---,1.67,VWS V14.01,2013-01-16 04:22:00,
2013-01-15 23:27:00,43.4,42.9,30.06,SW,217,0.0,3.0,98,0.12,,---,1.68,VWS V14.01,2013-01-16 04:27:00,
2013-01-15 23:32:00,43.4,42.9,30.06,SW,217,0.0,3.0,98,0.12,,---,1.68,VWS V14.01,2013-01-16 04:32:00,
2013-01-15 23:37:00,43.4,42.9,30.06,SW,217,0.0,0.0,98,0.10,,---,1.68,VWS V14.01,2013-01-16 04:37:00,
2013-01-15 23:42:00,43.5,43.0,30.06,SW,217,0.0,1.0,98,0.10,,---,1.68,VWS V14.01,2013-01-16 04:42:00,
2013-01-15 23:47:00,43.5,43.0,30.05,SW,217,0.0,1.0,98,0.10,,---,1.68,VWS V14.01,2013-01-16 04:47:00,
2013-01-15 23:52:00,43.5,43.0,30.05,SW,217,1.0,1.0,98,0.10,,---,1.68,VWS V14.01,2013-01-16 04:52:00,
2013-01-15 23:57:00,43.6,43.1,30.05,SW,217,0.0,1.0,98,0.10,,---,1.68,VWS V14.01,2013-01-16 04:57:00,